sensor_id;sensor_type;location;lat;lon;timestamp;P1;durP1;ratioP1;P2;durP2;ratioP2
70981;SDS011;58640;51.320;9.456;2023-07-31T00:01:41;1.80;;;1.10;;
70981;SDS011;58640;51.320;9.456;2023-07-31T00:04:06;1.33;;;0.88;;
70981;SDS011;58640;51.320;9.456;2023-07-31T00:06:32;3.60;;;1.00;;
70981;SDS011;58640;51.320;9.456;2023-07-31T00:08:57;3.45;;;0.95;;
70981;SDS011;58640;51.320;9.456;2023-07-31T00:11:22;4.22;;;1.17;;
70981;SDS011;58640;51.320;9.456;2023-07-31T00:13:48;3.00;;;1.30;;
70981;SDS011;58640;51.320;9.456;2023-07-31T00:16:13;2.42;;;1.30;;
70981;SDS011;58640;51.320;9.456;2023-07-31T00:18:38;5.82;;;1.50;;
70981;SDS011;58640;51.320;9.456;2023-07-31T00:21:04;5.07;;;1.25;;
70981;SDS011;58640;51.320;9.456;2023-07-31T00:23:29;4.35;;;1.42;;
70981;SDS011;58640;51.320;9.456;2023-07-31T00:25:55;2.03;;;1.10;;
70981;SDS011;58640;51.320;9.456;2023-07-31T00:28:20;1.58;;;1.27;;
70981;SDS011;58640;51.320;9.456;2023-07-31T00:30:45;4.60;;;1.10;;
70981;SDS011;58640;51.320;9.456;2023-07-31T00:33:11;2.88;;;0.88;;
70981;SDS011;58640;51.320;9.456;2023-07-31T00:35:36;3.17;;;1.13;;
70981;SDS011;58640;51.320;9.456;2023-07-31T00:38:02;5.75;;;1.05;;
70981;SDS011;58640;51.320;9.456;2023-07-31T00:40:27;2.15;;;1.02;;
70981;SDS011;58640;51.320;9.456;2023-07-31T00:42:53;3.22;;;1.05;;
70981;SDS011;58640;51.320;9.456;2023-07-31T00:45:21;4.03;;;1.90;;
70981;SDS011;58640;51.320;9.456;2023-07-31T00:47:48;5.28;;;1.58;;
70981;SDS011;58640;51.320;9.456;2023-07-31T00:50:14;3.60;;;1.90;;
70981;SDS011;58640;51.320;9.456;2023-07-31T00:52:39;2.90;;;1.17;;
70981;SDS011;58640;51.320;9.456;2023-07-31T00:55:05;4.05;;;1.40;;
70981;SDS011;58640;51.320;9.456;2023-07-31T00:57:31;3.42;;;1.42;;
70981;SDS011;58640;51.320;9.456;2023-07-31T00:59:58;2.90;;;1.20;;
70981;SDS011;58640;51.320;9.456;2023-07-31T01:02:23;2.30;;;1.40;;
70981;SDS011;58640;51.320;9.456;2023-07-31T01:04:49;6.00;;;1.38;;
70981;SDS011;58640;51.320;9.456;2023-07-31T01:07:19;4.18;;;1.60;;
70981;SDS011;58640;51.320;9.456;2023-07-31T01:12:36;4.30;;;1.77;;
70981;SDS011;58640;51.320;9.456;2023-07-31T01:17:29;2.60;;;1.13;;
70981;SDS011;58640;51.320;9.456;2023-07-31T01:19:59;5.10;;;1.50;;
70981;SDS011;58640;51.320;9.456;2023-07-31T01:25:23;10.77;;;1.42;;
70981;SDS011;58640;51.320;9.456;2023-07-31T01:28:05;6.57;;;1.95;;
70981;SDS011;58640;51.320;9.456;2023-07-31T01:30:36;4.00;;;1.60;;
70981;SDS011;58640;51.320;9.456;2023-07-31T01:33:06;4.32;;;1.20;;
70981;SDS011;58640;51.320;9.456;2023-07-31T01:35:36;5.72;;;1.58;;
70981;SDS011;58640;51.320;9.456;2023-07-31T01:38:02;5.63;;;1.40;;
70981;SDS011;58640;51.320;9.456;2023-07-31T01:40:29;4.10;;;1.50;;
70981;SDS011;58640;51.320;9.456;2023-07-31T01:42:54;5.45;;;1.45;;
70981;SDS011;58640;51.320;9.456;2023-07-31T01:45:20;4.13;;;1.30;;
70981;SDS011;58640;51.320;9.456;2023-07-31T01:47:45;5.53;;;1.70;;
70981;SDS011;58640;51.320;9.456;2023-07-31T01:50:10;1.65;;;1.10;;
70981;SDS011;58640;51.320;9.456;2023-07-31T01:52:36;3.67;;;1.60;;
70981;SDS011;58640;51.320;9.456;2023-07-31T01:55:01;3.88;;;1.15;;
70981;SDS011;58640;51.320;9.456;2023-07-31T01:57:26;4.65;;;1.90;;
70981;SDS011;58640;51.320;9.456;2023-07-31T01:59:52;2.20;;;1.25;;
70981;SDS011;58640;51.320;9.456;2023-07-31T02:02:18;3.13;;;1.08;;
70981;SDS011;58640;51.320;9.456;2023-07-31T02:04:44;3.35;;;1.27;;
70981;SDS011;58640;51.320;9.456;2023-07-31T02:07:09;3.03;;;1.33;;
70981;SDS011;58640;51.320;9.456;2023-07-31T02:09:35;3.20;;;1.17;;
70981;SDS011;58640;51.320;9.456;2023-07-31T02:12:00;3.20;;;1.30;;
70981;SDS011;58640;51.320;9.456;2023-07-31T02:14:25;2.33;;;0.93;;
70981;SDS011;58640;51.320;9.456;2023-07-31T02:16:51;4.18;;;1.20;;
70981;SDS011;58640;51.320;9.456;2023-07-31T02:19:16;3.53;;;1.00;;
70981;SDS011;58640;51.320;9.456;2023-07-31T02:21:41;2.05;;;1.20;;
70981;SDS011;58640;51.320;9.456;2023-07-31T02:24:07;3.35;;;1.38;;
70981;SDS011;58640;51.320;9.456;2023-07-31T02:26:32;4.03;;;1.63;;
70981;SDS011;58640;51.320;9.456;2023-07-31T02:28:57;4.65;;;1.33;;
70981;SDS011;58640;51.320;9.456;2023-07-31T02:31:23;2.63;;;1.60;;
70981;SDS011;58640;51.320;9.456;2023-07-31T02:33:48;4.13;;;1.48;;
70981;SDS011;58640;51.320;9.456;2023-07-31T02:36:13;2.10;;;1.20;;
70981;SDS011;58640;51.320;9.456;2023-07-31T02:38:39;2.78;;;1.65;;
70981;SDS011;58640;51.320;9.456;2023-07-31T02:41:05;2.20;;;1.23;;
70981;SDS011;58640;51.320;9.456;2023-07-31T02:43:30;3.65;;;1.25;;
70981;SDS011;58640;51.320;9.456;2023-07-31T02:45:55;3.25;;;1.50;;
70981;SDS011;58640;51.320;9.456;2023-07-31T02:48:21;5.93;;;1.30;;
70981;SDS011;58640;51.320;9.456;2023-07-31T02:50:47;2.70;;;1.55;;
70981;SDS011;58640;51.320;9.456;2023-07-31T02:53:13;7.82;;;1.83;;
70981;SDS011;58640;51.320;9.456;2023-07-31T02:55:38;3.67;;;1.95;;
70981;SDS011;58640;51.320;9.456;2023-07-31T02:58:04;4.57;;;1.80;;
70981;SDS011;58640;51.320;9.456;2023-07-31T03:00:29;6.90;;;1.65;;
70981;SDS011;58640;51.320;9.456;2023-07-31T03:02:54;3.63;;;2.00;;
70981;SDS011;58640;51.320;9.456;2023-07-31T03:05:20;2.85;;;1.70;;
70981;SDS011;58640;51.320;9.456;2023-07-31T03:07:45;4.05;;;1.77;;
70981;SDS011;58640;51.320;9.456;2023-07-31T03:10:11;3.38;;;1.98;;
70981;SDS011;58640;51.320;9.456;2023-07-31T03:12:36;2.78;;;1.60;;
70981;SDS011;58640;51.320;9.456;2023-07-31T03:15:01;4.20;;;2.03;;
70981;SDS011;58640;51.320;9.456;2023-07-31T03:17:27;2.60;;;1.73;;
70981;SDS011;58640;51.320;9.456;2023-07-31T03:19:52;5.60;;;2.05;;
70981;SDS011;58640;51.320;9.456;2023-07-31T03:22:18;3.78;;;2.10;;
70981;SDS011;58640;51.320;9.456;2023-07-31T03:24:43;9.05;;;2.33;;
70981;SDS011;58640;51.320;9.456;2023-07-31T03:27:08;2.40;;;2.00;;
70981;SDS011;58640;51.320;9.456;2023-07-31T03:29:34;2.17;;;1.67;;
70981;SDS011;58640;51.320;9.456;2023-07-31T03:31:59;5.55;;;2.13;;
70981;SDS011;58640;51.320;9.456;2023-07-31T03:34:24;4.03;;;2.10;;
70981;SDS011;58640;51.320;9.456;2023-07-31T03:36:50;5.75;;;2.15;;
70981;SDS011;58640;51.320;9.456;2023-07-31T03:39:15;5.72;;;2.15;;
70981;SDS011;58640;51.320;9.456;2023-07-31T03:41:40;3.22;;;1.92;;
70981;SDS011;58640;51.320;9.456;2023-07-31T03:44:06;2.60;;;1.95;;
70981;SDS011;58640;51.320;9.456;2023-07-31T03:46:31;2.33;;;2.00;;
70981;SDS011;58640;51.320;9.456;2023-07-31T03:48:57;3.20;;;1.85;;
70981;SDS011;58640;51.320;9.456;2023-07-31T03:51:22;4.18;;;1.90;;
70981;SDS011;58640;51.320;9.456;2023-07-31T03:53:47;3.10;;;1.92;;
70981;SDS011;58640;51.320;9.456;2023-07-31T03:56:13;2.85;;;2.03;;
70981;SDS011;58640;51.320;9.456;2023-07-31T03:58:38;5.30;;;2.35;;
70981;SDS011;58640;51.320;9.456;2023-07-31T04:01:03;4.00;;;2.03;;
70981;SDS011;58640;51.320;9.456;2023-07-31T04:03:29;3.05;;;1.73;;
70981;SDS011;58640;51.320;9.456;2023-07-31T04:05:55;2.13;;;1.60;;
70981;SDS011;58640;51.320;9.456;2023-07-31T04:08:21;2.30;;;1.70;;
70981;SDS011;58640;51.320;9.456;2023-07-31T04:10:47;3.28;;;1.90;;
70981;SDS011;58640;51.320;9.456;2023-07-31T04:13:12;3.40;;;1.25;;
70981;SDS011;58640;51.320;9.456;2023-07-31T04:15:38;5.40;;;1.77;;
70981;SDS011;58640;51.320;9.456;2023-07-31T04:18:04;4.13;;;1.92;;
70981;SDS011;58640;51.320;9.456;2023-07-31T04:20:29;4.32;;;1.33;;
70981;SDS011;58640;51.320;9.456;2023-07-31T04:22:55;2.90;;;1.80;;
70981;SDS011;58640;51.320;9.456;2023-07-31T04:25:20;9.20;;;1.40;;
70981;SDS011;58640;51.320;9.456;2023-07-31T04:27:45;4.03;;;1.83;;
70981;SDS011;58640;51.320;9.456;2023-07-31T04:30:11;5.65;;;1.58;;
70981;SDS011;58640;51.320;9.456;2023-07-31T04:32:36;2.63;;;1.90;;
70981;SDS011;58640;51.320;9.456;2023-07-31T04:35:02;2.90;;;1.73;;
70981;SDS011;58640;51.320;9.456;2023-07-31T04:37:27;4.75;;;1.85;;
70981;SDS011;58640;51.320;9.456;2023-07-31T04:39:53;3.58;;;1.88;;
70981;SDS011;58640;51.320;9.456;2023-07-31T04:42:18;2.28;;;1.38;;
70981;SDS011;58640;51.320;9.456;2023-07-31T04:44:44;5.75;;;1.98;;
70981;SDS011;58640;51.320;9.456;2023-07-31T04:47:09;3.28;;;1.75;;
70981;SDS011;58640;51.320;9.456;2023-07-31T04:49:35;4.65;;;2.15;;
70981;SDS011;58640;51.320;9.456;2023-07-31T04:52:00;5.30;;;2.10;;
70981;SDS011;58640;51.320;9.456;2023-07-31T04:54:25;4.25;;;1.77;;
70981;SDS011;58640;51.320;9.456;2023-07-31T04:56:51;2.05;;;1.52;;
70981;SDS011;58640;51.320;9.456;2023-07-31T04:59:17;2.70;;;1.55;;
70981;SDS011;58640;51.320;9.456;2023-07-31T05:01:42;4.65;;;2.10;;
70981;SDS011;58640;51.320;9.456;2023-07-31T05:04:10;4.25;;;1.77;;
70981;SDS011;58640;51.320;9.456;2023-07-31T05:06:37;3.97;;;1.95;;
70981;SDS011;58640;51.320;9.456;2023-07-31T05:09:02;4.78;;;2.15;;
70981;SDS011;58640;51.320;9.456;2023-07-31T05:11:28;4.83;;;2.10;;
70981;SDS011;58640;51.320;9.456;2023-07-31T05:13:53;3.28;;;1.80;;
70981;SDS011;58640;51.320;9.456;2023-07-31T05:16:18;7.25;;;2.00;;
70981;SDS011;58640;51.320;9.456;2023-07-31T05:18:43;3.97;;;2.05;;
70981;SDS011;58640;51.320;9.456;2023-07-31T05:21:09;3.85;;;1.98;;
70981;SDS011;58640;51.320;9.456;2023-07-31T05:23:34;4.63;;;1.95;;
70981;SDS011;58640;51.320;9.456;2023-07-31T05:26:06;4.05;;;2.30;;
70981;SDS011;58640;51.320;9.456;2023-07-31T05:28:33;4.40;;;1.75;;
70981;SDS011;58640;51.320;9.456;2023-07-31T05:31:02;4.97;;;2.58;;
70981;SDS011;58640;51.320;9.456;2023-07-31T05:33:29;5.85;;;2.65;;
70981;SDS011;58640;51.320;9.456;2023-07-31T05:35:54;3.15;;;1.92;;
70981;SDS011;58640;51.320;9.456;2023-07-31T05:38:20;3.35;;;2.00;;
70981;SDS011;58640;51.320;9.456;2023-07-31T05:40:46;4.32;;;2.25;;
70981;SDS011;58640;51.320;9.456;2023-07-31T05:43:11;7.78;;;2.53;;
70981;SDS011;58640;51.320;9.456;2023-07-31T05:45:37;8.02;;;2.13;;
70981;SDS011;58640;51.320;9.456;2023-07-31T05:48:03;4.72;;;2.17;;
70981;SDS011;58640;51.320;9.456;2023-07-31T05:50:28;5.60;;;3.47;;
70981;SDS011;58640;51.320;9.456;2023-07-31T05:52:54;8.05;;;2.40;;
70981;SDS011;58640;51.320;9.456;2023-07-31T05:55:19;7.15;;;2.50;;
70981;SDS011;58640;51.320;9.456;2023-07-31T05:57:45;3.58;;;2.28;;
70981;SDS011;58640;51.320;9.456;2023-07-31T06:00:11;4.97;;;2.27;;
70981;SDS011;58640;51.320;9.456;2023-07-31T06:02:37;5.70;;;2.40;;
70981;SDS011;58640;51.320;9.456;2023-07-31T06:05:03;7.95;;;2.08;;
70981;SDS011;58640;51.320;9.456;2023-07-31T06:07:30;5.90;;;2.20;;
70981;SDS011;58640;51.320;9.456;2023-07-31T06:09:56;4.00;;;2.10;;
70981;SDS011;58640;51.320;9.456;2023-07-31T06:12:26;4.93;;;2.00;;
70981;SDS011;58640;51.320;9.456;2023-07-31T06:14:52;6.13;;;2.10;;
70981;SDS011;58640;51.320;9.456;2023-07-31T06:17:17;3.30;;;1.88;;
70981;SDS011;58640;51.320;9.456;2023-07-31T06:19:43;3.63;;;1.80;;
70981;SDS011;58640;51.320;9.456;2023-07-31T06:22:08;4.80;;;2.33;;
70981;SDS011;58640;51.320;9.456;2023-07-31T06:24:34;5.53;;;2.22;;
70981;SDS011;58640;51.320;9.456;2023-07-31T06:26:59;9.02;;;2.30;;
70981;SDS011;58640;51.320;9.456;2023-07-31T06:29:25;3.97;;;2.35;;
70981;SDS011;58640;51.320;9.456;2023-07-31T06:31:50;5.32;;;2.42;;
70981;SDS011;58640;51.320;9.456;2023-07-31T06:34:15;5.97;;;2.78;;
70981;SDS011;58640;51.320;9.456;2023-07-31T06:36:41;5.13;;;2.35;;
70981;SDS011;58640;51.320;9.456;2023-07-31T06:39:06;5.38;;;2.00;;
70981;SDS011;58640;51.320;9.456;2023-07-31T06:41:31;3.97;;;1.83;;
70981;SDS011;58640;51.320;9.456;2023-07-31T06:43:57;4.60;;;2.00;;
70981;SDS011;58640;51.320;9.456;2023-07-31T06:46:22;7.30;;;2.15;;
70981;SDS011;58640;51.320;9.456;2023-07-31T06:48:48;4.82;;;2.30;;
70981;SDS011;58640;51.320;9.456;2023-07-31T06:51:13;6.80;;;2.15;;
70981;SDS011;58640;51.320;9.456;2023-07-31T06:53:38;3.63;;;2.00;;
70981;SDS011;58640;51.320;9.456;2023-07-31T06:56:04;7.38;;;2.47;;
70981;SDS011;58640;51.320;9.456;2023-07-31T06:58:29;6.55;;;2.42;;
70981;SDS011;58640;51.320;9.456;2023-07-31T07:00:54;7.30;;;3.17;;
70981;SDS011;58640;51.320;9.456;2023-07-31T07:03:20;8.70;;;2.28;;
70981;SDS011;58640;51.320;9.456;2023-07-31T07:05:45;3.28;;;1.88;;
70981;SDS011;58640;51.320;9.456;2023-07-31T07:08:11;3.92;;;2.33;;
70981;SDS011;58640;51.320;9.456;2023-07-31T07:10:36;6.05;;;1.98;;
70981;SDS011;58640;51.320;9.456;2023-07-31T07:13:02;7.30;;;2.10;;
70981;SDS011;58640;51.320;9.456;2023-07-31T07:15:27;3.70;;;2.00;;
70981;SDS011;58640;51.320;9.456;2023-07-31T07:17:53;3.08;;;1.70;;
70981;SDS011;58640;51.320;9.456;2023-07-31T07:20:19;2.47;;;1.40;;
70981;SDS011;58640;51.320;9.456;2023-07-31T07:22:45;5.30;;;2.20;;
70981;SDS011;58640;51.320;9.456;2023-07-31T07:25:10;2.10;;;1.77;;
70981;SDS011;58640;51.320;9.456;2023-07-31T07:27:36;2.95;;;1.83;;
70981;SDS011;58640;51.320;9.456;2023-07-31T07:30:01;5.53;;;2.20;;
70981;SDS011;58640;51.320;9.456;2023-07-31T07:32:27;3.25;;;1.92;;
70981;SDS011;58640;51.320;9.456;2023-07-31T07:34:52;2.60;;;1.65;;
70981;SDS011;58640;51.320;9.456;2023-07-31T07:37:17;11.77;;;2.88;;
70981;SDS011;58640;51.320;9.456;2023-07-31T07:39:43;3.03;;;1.85;;
70981;SDS011;58640;51.320;9.456;2023-07-31T07:42:09;7.65;;;2.10;;
70981;SDS011;58640;51.320;9.456;2023-07-31T07:44:34;5.50;;;2.10;;
70981;SDS011;58640;51.320;9.456;2023-07-31T07:47:00;4.20;;;2.13;;
70981;SDS011;58640;51.320;9.456;2023-07-31T07:49:25;5.63;;;2.22;;
70981;SDS011;58640;51.320;9.456;2023-07-31T07:51:50;5.90;;;2.65;;
70981;SDS011;58640;51.320;9.456;2023-07-31T07:54:16;4.68;;;2.40;;
70981;SDS011;58640;51.320;9.456;2023-07-31T07:56:46;5.20;;;2.20;;
70981;SDS011;58640;51.320;9.456;2023-07-31T07:59:11;7.57;;;3.35;;
70981;SDS011;58640;51.320;9.456;2023-07-31T08:01:37;3.90;;;1.85;;
70981;SDS011;58640;51.320;9.456;2023-07-31T08:04:02;3.90;;;2.28;;
70981;SDS011;58640;51.320;9.456;2023-07-31T08:06:27;3.35;;;2.10;;
70981;SDS011;58640;51.320;9.456;2023-07-31T08:08:54;7.13;;;2.78;;
70981;SDS011;58640;51.320;9.456;2023-07-31T08:11:20;8.10;;;2.33;;
70981;SDS011;58640;51.320;9.456;2023-07-31T08:13:47;4.97;;;2.05;;
70981;SDS011;58640;51.320;9.456;2023-07-31T08:16:12;3.45;;;1.92;;
70981;SDS011;58640;51.320;9.456;2023-07-31T08:18:37;4.40;;;1.85;;
70981;SDS011;58640;51.320;9.456;2023-07-31T08:21:03;5.57;;;2.28;;
70981;SDS011;58640;51.320;9.456;2023-07-31T08:23:28;5.35;;;2.13;;
70981;SDS011;58640;51.320;9.456;2023-07-31T08:25:54;3.80;;;2.47;;
70981;SDS011;58640;51.320;9.456;2023-07-31T08:28:19;7.13;;;2.28;;
70981;SDS011;58640;51.320;9.456;2023-07-31T08:30:44;4.88;;;2.25;;
70981;SDS011;58640;51.320;9.456;2023-07-31T08:33:10;6.63;;;2.38;;
70981;SDS011;58640;51.320;9.456;2023-07-31T08:35:36;5.78;;;2.75;;
70981;SDS011;58640;51.320;9.456;2023-07-31T08:38:01;3.80;;;2.28;;
70981;SDS011;58640;51.320;9.456;2023-07-31T08:40:26;2.50;;;2.03;;
70981;SDS011;58640;51.320;9.456;2023-07-31T08:42:54;4.22;;;2.10;;
70981;SDS011;58640;51.320;9.456;2023-07-31T08:45:21;5.95;;;2.30;;
70981;SDS011;58640;51.320;9.456;2023-07-31T08:47:51;4.95;;;2.13;;
70981;SDS011;58640;51.320;9.456;2023-07-31T08:50:18;3.35;;;2.10;;
70981;SDS011;58640;51.320;9.456;2023-07-31T08:52:48;6.25;;;2.08;;
70981;SDS011;58640;51.320;9.456;2023-07-31T08:55:15;5.18;;;2.20;;
70981;SDS011;58640;51.320;9.456;2023-07-31T08:57:40;6.28;;;2.50;;
70981;SDS011;58640;51.320;9.456;2023-07-31T09:00:07;5.07;;;2.17;;
70981;SDS011;58640;51.320;9.456;2023-07-31T09:02:56;2.88;;;2.00;;
70981;SDS011;58640;51.320;9.456;2023-07-31T09:05:24;2.97;;;2.30;;
70981;SDS011;58640;51.320;9.456;2023-07-31T09:07:51;5.40;;;2.20;;
70981;SDS011;58640;51.320;9.456;2023-07-31T09:10:16;5.10;;;2.20;;
70981;SDS011;58640;51.320;9.456;2023-07-31T09:12:42;6.47;;;2.45;;
70981;SDS011;58640;51.320;9.456;2023-07-31T09:15:08;4.40;;;2.35;;
70981;SDS011;58640;51.320;9.456;2023-07-31T09:17:35;3.55;;;2.13;;
70981;SDS011;58640;51.320;9.456;2023-07-31T09:20:18;4.75;;;2.22;;
70981;SDS011;58640;51.320;9.456;2023-07-31T09:22:45;5.50;;;2.55;;
70981;SDS011;58640;51.320;9.456;2023-07-31T09:27:53;4.65;;;2.60;;
70981;SDS011;58640;51.320;9.456;2023-07-31T09:30:19;6.03;;;2.90;;
70981;SDS011;58640;51.320;9.456;2023-07-31T09:32:46;5.95;;;2.75;;
70981;SDS011;58640;51.320;9.456;2023-07-31T09:35:13;5.38;;;2.30;;
70981;SDS011;58640;51.320;9.456;2023-07-31T09:37:38;3.00;;;2.25;;
70981;SDS011;58640;51.320;9.456;2023-07-31T09:40:04;4.40;;;2.20;;
70981;SDS011;58640;51.320;9.456;2023-07-31T09:42:30;4.78;;;2.30;;
70981;SDS011;58640;51.320;9.456;2023-07-31T09:45:06;5.07;;;2.45;;
70981;SDS011;58640;51.320;9.456;2023-07-31T09:47:33;8.02;;;3.50;;
70981;SDS011;58640;51.320;9.456;2023-07-31T09:49:59;6.90;;;2.58;;
70981;SDS011;58640;51.320;9.456;2023-07-31T09:52:25;3.05;;;2.40;;
70981;SDS011;58640;51.320;9.456;2023-07-31T09:54:52;4.22;;;2.42;;
70981;SDS011;58640;51.320;9.456;2023-07-31T09:57:17;4.97;;;3.03;;
70981;SDS011;58640;51.320;9.456;2023-07-31T09:59:47;5.00;;;2.70;;
70981;SDS011;58640;51.320;9.456;2023-07-31T10:02:14;5.28;;;2.70;;
70981;SDS011;58640;51.320;9.456;2023-07-31T10:04:45;3.97;;;2.40;;
70981;SDS011;58640;51.320;9.456;2023-07-31T10:07:13;8.93;;;3.10;;
70981;SDS011;58640;51.320;9.456;2023-07-31T10:09:41;5.10;;;2.72;;
70981;SDS011;58640;51.320;9.456;2023-07-31T10:12:07;5.07;;;2.60;;
70981;SDS011;58640;51.320;9.456;2023-07-31T10:14:36;4.45;;;2.60;;
70981;SDS011;58640;51.320;9.456;2023-07-31T10:17:03;7.40;;;2.88;;
70981;SDS011;58640;51.320;9.456;2023-07-31T10:19:31;9.15;;;3.30;;
70981;SDS011;58640;51.320;9.456;2023-07-31T10:21:57;5.93;;;3.33;;
70981;SDS011;58640;51.320;9.456;2023-07-31T10:24:27;6.70;;;2.92;;
70981;SDS011;58640;51.320;9.456;2023-07-31T10:26:54;5.70;;;3.00;;
70981;SDS011;58640;51.320;9.456;2023-07-31T10:29:23;3.83;;;2.78;;
70981;SDS011;58640;51.320;9.456;2023-07-31T10:31:50;7.05;;;3.28;;
70981;SDS011;58640;51.320;9.456;2023-07-31T10:34:17;8.73;;;3.08;;
70981;SDS011;58640;51.320;9.456;2023-07-31T10:36:42;7.63;;;2.67;;
70981;SDS011;58640;51.320;9.456;2023-07-31T10:41:59;10.63;;;3.25;;
70981;SDS011;58640;51.320;9.456;2023-07-31T10:44:34;7.30;;;3.20;;
70981;SDS011;58640;51.320;9.456;2023-07-31T10:47:00;5.65;;;2.85;;
70981;SDS011;58640;51.320;9.456;2023-07-31T10:49:25;11.90;;;3.08;;
70981;SDS011;58640;51.320;9.456;2023-07-31T10:51:56;8.60;;;3.50;;
70981;SDS011;58640;51.320;9.456;2023-07-31T10:54:22;5.63;;;3.00;;
70981;SDS011;58640;51.320;9.456;2023-07-31T10:56:49;6.70;;;2.70;;
70981;SDS011;58640;51.320;9.456;2023-07-31T10:59:15;5.50;;;2.60;;
70981;SDS011;58640;51.320;9.456;2023-07-31T11:04:24;7.55;;;3.38;;
70981;SDS011;58640;51.320;9.456;2023-07-31T11:07:00;10.15;;;3.70;;
70981;SDS011;58640;51.320;9.456;2023-07-31T11:09:28;9.32;;;3.40;;
70981;SDS011;58640;51.320;9.456;2023-07-31T11:11:55;5.70;;;2.97;;
70981;SDS011;58640;51.320;9.456;2023-07-31T11:14:20;5.40;;;2.65;;
70981;SDS011;58640;51.320;9.456;2023-07-31T11:16:46;7.35;;;3.67;;
70981;SDS011;58640;51.320;9.456;2023-07-31T11:19:20;6.72;;;3.20;;
70981;SDS011;58640;51.320;9.456;2023-07-31T11:21:49;7.93;;;2.80;;
70981;SDS011;58640;51.320;9.456;2023-07-31T11:24:16;5.63;;;2.58;;
70981;SDS011;58640;51.320;9.456;2023-07-31T11:26:52;7.65;;;3.30;;
70981;SDS011;58640;51.320;9.456;2023-07-31T11:29:18;5.43;;;2.67;;
70981;SDS011;58640;51.320;9.456;2023-07-31T11:31:44;8.20;;;4.10;;
70981;SDS011;58640;51.320;9.456;2023-07-31T11:34:11;4.38;;;2.72;;
70981;SDS011;58640;51.320;9.456;2023-07-31T11:36:37;8.00;;;3.20;;
70981;SDS011;58640;51.320;9.456;2023-07-31T11:39:05;4.00;;;2.25;;
70981;SDS011;58640;51.320;9.456;2023-07-31T11:41:32;6.03;;;2.28;;
70981;SDS011;58640;51.320;9.456;2023-07-31T11:44:00;5.57;;;2.28;;
70981;SDS011;58640;51.320;9.456;2023-07-31T11:46:27;3.28;;;2.10;;
70981;SDS011;58640;51.320;9.456;2023-07-31T11:48:58;3.35;;;2.03;;
70981;SDS011;58640;51.320;9.456;2023-07-31T11:51:25;4.05;;;2.10;;
70981;SDS011;58640;51.320;9.456;2023-07-31T11:53:53;3.80;;;2.17;;
70981;SDS011;58640;51.320;9.456;2023-07-31T11:56:23;3.60;;;2.00;;
70981;SDS011;58640;51.320;9.456;2023-07-31T11:58:53;3.78;;;1.67;;
70981;SDS011;58640;51.320;9.456;2023-07-31T12:01:24;4.28;;;1.80;;
70981;SDS011;58640;51.320;9.456;2023-07-31T12:03:52;2.65;;;1.88;;
70981;SDS011;58640;51.320;9.456;2023-07-31T12:06:18;2.95;;;2.10;;
70981;SDS011;58640;51.320;9.456;2023-07-31T12:08:45;4.45;;;1.70;;
70981;SDS011;58640;51.320;9.456;2023-07-31T12:11:11;3.10;;;1.60;;
70981;SDS011;58640;51.320;9.456;2023-07-31T12:13:38;4.25;;;1.80;;
70981;SDS011;58640;51.320;9.456;2023-07-31T12:16:04;2.70;;;1.48;;
70981;SDS011;58640;51.320;9.456;2023-07-31T12:18:31;2.95;;;1.88;;
70981;SDS011;58640;51.320;9.456;2023-07-31T12:21:00;2.15;;;1.75;;
70981;SDS011;58640;51.320;9.456;2023-07-31T12:23:28;2.42;;;1.90;;
70981;SDS011;58640;51.320;9.456;2023-07-31T12:26:05;5.50;;;2.30;;
70981;SDS011;58640;51.320;9.456;2023-07-31T12:28:34;5.43;;;2.30;;
70981;SDS011;58640;51.320;9.456;2023-07-31T12:31:01;2.97;;;1.85;;
70981;SDS011;58640;51.320;9.456;2023-07-31T12:33:33;5.25;;;2.08;;
70981;SDS011;58640;51.320;9.456;2023-07-31T12:36:01;3.92;;;2.20;;
70981;SDS011;58640;51.320;9.456;2023-07-31T12:38:27;4.30;;;2.20;;
70981;SDS011;58640;51.320;9.456;2023-07-31T12:40:53;4.82;;;2.40;;
70981;SDS011;58640;51.320;9.456;2023-07-31T12:43:18;3.63;;;2.20;;
70981;SDS011;58640;51.320;9.456;2023-07-31T12:45:44;5.88;;;2.72;;
70981;SDS011;58640;51.320;9.456;2023-07-31T12:48:09;5.10;;;3.03;;
70981;SDS011;58640;51.320;9.456;2023-07-31T12:50:34;5.07;;;2.35;;
70981;SDS011;58640;51.320;9.456;2023-07-31T12:53:01;5.03;;;2.28;;
70981;SDS011;58640;51.320;9.456;2023-07-31T12:55:28;4.85;;;2.33;;
70981;SDS011;58640;51.320;9.456;2023-07-31T12:57:54;10.68;;;2.70;;
70981;SDS011;58640;51.320;9.456;2023-07-31T13:00:19;4.63;;;2.47;;
70981;SDS011;58640;51.320;9.456;2023-07-31T13:02:44;6.47;;;2.60;;
70981;SDS011;58640;51.320;9.456;2023-07-31T13:05:10;6.70;;;2.50;;
70981;SDS011;58640;51.320;9.456;2023-07-31T13:07:35;3.00;;;2.10;;
70981;SDS011;58640;51.320;9.456;2023-07-31T13:10:01;5.88;;;2.17;;
70981;SDS011;58640;51.320;9.456;2023-07-31T13:12:26;8.23;;;2.63;;
70981;SDS011;58640;51.320;9.456;2023-07-31T13:14:51;6.78;;;3.70;;
70981;SDS011;58640;51.320;9.456;2023-07-31T13:17:17;5.55;;;2.35;;
70981;SDS011;58640;51.320;9.456;2023-07-31T13:19:43;4.28;;;2.00;;
70981;SDS011;58640;51.320;9.456;2023-07-31T13:22:08;5.75;;;2.53;;
70981;SDS011;58640;51.320;9.456;2023-07-31T13:24:33;3.70;;;2.00;;
70981;SDS011;58640;51.320;9.456;2023-07-31T13:26:59;6.57;;;3.35;;
70981;SDS011;58640;51.320;9.456;2023-07-31T13:29:24;4.95;;;2.13;;
70981;SDS011;58640;51.320;9.456;2023-07-31T13:31:50;5.07;;;2.15;;
70981;SDS011;58640;51.320;9.456;2023-07-31T13:34:17;5.47;;;2.25;;
70981;SDS011;58640;51.320;9.456;2023-07-31T13:36:42;8.10;;;2.50;;
70981;SDS011;58640;51.320;9.456;2023-07-31T13:39:07;4.28;;;2.20;;
70981;SDS011;58640;51.320;9.456;2023-07-31T13:41:33;7.57;;;2.15;;
70981;SDS011;58640;51.320;9.456;2023-07-31T13:43:58;5.38;;;2.15;;
70981;SDS011;58640;51.320;9.456;2023-07-31T13:46:23;4.43;;;2.33;;
70981;SDS011;58640;51.320;9.456;2023-07-31T13:48:50;6.20;;;2.22;;
70981;SDS011;58640;51.320;9.456;2023-07-31T13:51:16;5.90;;;2.67;;
70981;SDS011;58640;51.320;9.456;2023-07-31T13:53:41;5.50;;;2.88;;
70981;SDS011;58640;51.320;9.456;2023-07-31T13:56:06;4.00;;;2.80;;
70981;SDS011;58640;51.320;9.456;2023-07-31T13:58:32;7.57;;;2.50;;
70981;SDS011;58640;51.320;9.456;2023-07-31T14:00:58;6.97;;;2.47;;
70981;SDS011;58640;51.320;9.456;2023-07-31T14:03:23;8.20;;;2.55;;
70981;SDS011;58640;51.320;9.456;2023-07-31T14:05:49;3.97;;;2.20;;
70981;SDS011;58640;51.320;9.456;2023-07-31T14:08:14;4.40;;;2.40;;
70981;SDS011;58640;51.320;9.456;2023-07-31T14:10:40;4.63;;;2.30;;
70981;SDS011;58640;51.320;9.456;2023-07-31T14:13:05;3.22;;;2.22;;
70981;SDS011;58640;51.320;9.456;2023-07-31T14:15:30;6.53;;;2.58;;
70981;SDS011;58640;51.320;9.456;2023-07-31T14:17:57;4.90;;;2.55;;
70981;SDS011;58640;51.320;9.456;2023-07-31T14:20:22;5.47;;;2.20;;
70981;SDS011;58640;51.320;9.456;2023-07-31T14:22:48;7.47;;;2.47;;
70981;SDS011;58640;51.320;9.456;2023-07-31T14:25:13;6.88;;;2.42;;
70981;SDS011;58640;51.320;9.456;2023-07-31T14:27:38;4.43;;;1.92;;
70981;SDS011;58640;51.320;9.456;2023-07-31T14:30:04;6.47;;;2.03;;
70981;SDS011;58640;51.320;9.456;2023-07-31T14:32:30;2.80;;;1.70;;
70981;SDS011;58640;51.320;9.456;2023-07-31T14:34:55;6.28;;;2.08;;
70981;SDS011;58640;51.320;9.456;2023-07-31T14:37:20;2.75;;;1.77;;
70981;SDS011;58640;51.320;9.456;2023-07-31T14:39:46;8.45;;;1.98;;
70981;SDS011;58640;51.320;9.456;2023-07-31T14:42:11;6.72;;;1.60;;
70981;SDS011;58640;51.320;9.456;2023-07-31T14:44:36;16.17;;;2.75;;
70981;SDS011;58640;51.320;9.456;2023-07-31T14:47:02;4.85;;;1.88;;
70981;SDS011;58640;51.320;9.456;2023-07-31T14:49:27;2.83;;;1.88;;
70981;SDS011;58640;51.320;9.456;2023-07-31T14:51:53;3.53;;;1.50;;
70981;SDS011;58640;51.320;9.456;2023-07-31T14:54:19;2.28;;;1.70;;
70981;SDS011;58640;51.320;9.456;2023-07-31T14:56:44;5.90;;;1.75;;
70981;SDS011;58640;51.320;9.456;2023-07-31T14:59:09;3.95;;;1.88;;